sensor_id;sensor_type;location;lat;lon;timestamp;P1;durP1;ratioP1;P2;durP2;ratioP2
25481;SDS011;13395;50.752;4.268;2023-04-15T00:00:04;6.47;;;3.55;;
25481;SDS011;13395;50.752;4.268;2023-04-15T00:02:30;7.55;;;3.72;;
25481;SDS011;13395;50.752;4.268;2023-04-15T00:04:56;5.60;;;3.30;;
25481;SDS011;13395;50.752;4.268;2023-04-15T00:07:22;9.40;;;3.65;;
25481;SDS011;13395;50.752;4.268;2023-04-15T00:09:47;9.02;;;3.97;;
25481;SDS011;13395;50.752;4.268;2023-04-15T00:12:13;6.00;;;3.63;;
25481;SDS011;13395;50.752;4.268;2023-04-15T00:14:38;9.32;;;3.80;;
25481;SDS011;13395;50.752;4.268;2023-04-15T00:17:04;7.13;;;3.45;;
25481;SDS011;13395;50.752;4.268;2023-04-15T00:19:30;5.00;;;3.63;;
25481;SDS011;13395;50.752;4.268;2023-04-15T00:21:56;6.22;;;4.38;;
25481;SDS011;13395;50.752;4.268;2023-04-15T00:24:22;8.57;;;3.88;;
25481;SDS011;13395;50.752;4.268;2023-04-15T00:26:48;6.43;;;3.60;;
25481;SDS011;13395;50.752;4.268;2023-04-15T00:29:13;8.07;;;3.63;;
25481;SDS011;13395;50.752;4.268;2023-04-15T00:31:39;7.90;;;3.47;;
25481;SDS011;13395;50.752;4.268;2023-04-15T00:34:06;8.90;;;4.40;;
25481;SDS011;13395;50.752;4.268;2023-04-15T00:36:31;8.45;;;4.05;;
25481;SDS011;13395;50.752;4.268;2023-04-15T00:38:58;7.07;;;3.85;;
25481;SDS011;13395;50.752;4.268;2023-04-15T00:41:24;8.07;;;4.03;;
25481;SDS011;13395;50.752;4.268;2023-04-15T00:43:50;5.75;;;3.85;;
25481;SDS011;13395;50.752;4.268;2023-04-15T00:46:16;8.15;;;4.10;;
25481;SDS011;13395;50.752;4.268;2023-04-15T00:48:44;8.98;;;4.38;;
25481;SDS011;13395;50.752;4.268;2023-04-15T00:51:11;6.65;;;3.75;;
25481;SDS011;13395;50.752;4.268;2023-04-15T00:53:37;7.53;;;4.00;;
25481;SDS011;13395;50.752;4.268;2023-04-15T00:56:03;4.78;;;3.45;;
25481;SDS011;13395;50.752;4.268;2023-04-15T00:58:30;6.38;;;3.90;;
25481;SDS011;13395;50.752;4.268;2023-04-15T01:00:55;4.70;;;3.65;;
25481;SDS011;13395;50.752;4.268;2023-04-15T01:03:22;5.40;;;4.00;;
25481;SDS011;13395;50.752;4.268;2023-04-15T01:05:47;7.07;;;4.32;;
25481;SDS011;13395;50.752;4.268;2023-04-15T01:08:14;7.97;;;4.07;;
25481;SDS011;13395;50.752;4.268;2023-04-15T01:10:39;6.57;;;4.00;;
25481;SDS011;13395;50.752;4.268;2023-04-15T01:13:06;7.70;;;4.07;;
25481;SDS011;13395;50.752;4.268;2023-04-15T01:15:31;5.85;;;3.92;;
25481;SDS011;13395;50.752;4.268;2023-04-15T01:17:59;5.90;;;4.03;;
25481;SDS011;13395;50.752;4.268;2023-04-15T01:20:26;6.43;;;4.03;;
25481;SDS011;13395;50.752;4.268;2023-04-15T01:22:53;8.85;;;3.67;;
25481;SDS011;13395;50.752;4.268;2023-04-15T01:25:32;7.97;;;3.95;;
25481;SDS011;13395;50.752;4.268;2023-04-15T01:27:58;6.65;;;3.92;;
25481;SDS011;13395;50.752;4.268;2023-04-15T01:30:24;5.97;;;4.00;;
25481;SDS011;13395;50.752;4.268;2023-04-15T01:32:54;9.38;;;3.85;;
25481;SDS011;13395;50.752;4.268;2023-04-15T01:35:20;5.28;;;3.90;;
25481;SDS011;13395;50.752;4.268;2023-04-15T01:37:46;6.00;;;4.78;;
25481;SDS011;13395;50.752;4.268;2023-04-15T01:40:13;6.45;;;3.63;;
25481;SDS011;13395;50.752;4.268;2023-04-15T01:42:39;11.27;;;4.28;;
25481;SDS011;13395;50.752;4.268;2023-04-15T01:45:05;8.15;;;4.32;;
25481;SDS011;13395;50.752;4.268;2023-04-15T01:47:31;5.25;;;3.90;;
25481;SDS011;13395;50.752;4.268;2023-04-15T01:49:57;6.47;;;3.80;;
25481;SDS011;13395;50.752;4.268;2023-04-15T01:52:23;6.25;;;4.20;;
25481;SDS011;13395;50.752;4.268;2023-04-15T01:54:49;5.72;;;3.78;;
25481;SDS011;13395;50.752;4.268;2023-04-15T01:57:15;10.70;;;4.03;;
25481;SDS011;13395;50.752;4.268;2023-04-15T01:59:41;7.55;;;4.40;;
25481;SDS011;13395;50.752;4.268;2023-04-15T02:02:06;9.50;;;4.20;;
25481;SDS011;13395;50.752;4.268;2023-04-15T02:04:32;7.78;;;4.35;;
25481;SDS011;13395;50.752;4.268;2023-04-15T02:06:58;6.43;;;5.45;;
25481;SDS011;13395;50.752;4.268;2023-04-15T02:09:24;10.00;;;4.85;;
25481;SDS011;13395;50.752;4.268;2023-04-15T02:11:50;8.10;;;5.00;;
25481;SDS011;13395;50.752;4.268;2023-04-15T02:14:16;6.50;;;4.78;;
25481;SDS011;13395;50.752;4.268;2023-04-15T02:16:42;8.30;;;4.57;;
25481;SDS011;13395;50.752;4.268;2023-04-15T02:19:08;5.82;;;4.50;;
25481;SDS011;13395;50.752;4.268;2023-04-15T02:21:33;8.70;;;5.07;;
25481;SDS011;13395;50.752;4.268;2023-04-15T02:23:59;6.30;;;4.63;;
25481;SDS011;13395;50.752;4.268;2023-04-15T02:26:26;9.02;;;5.22;;
25481;SDS011;13395;50.752;4.268;2023-04-15T02:28:52;8.13;;;4.85;;
25481;SDS011;13395;50.752;4.268;2023-04-15T02:31:18;8.50;;;5.10;;
25481;SDS011;13395;50.752;4.268;2023-04-15T02:33:45;8.63;;;5.45;;
25481;SDS011;13395;50.752;4.268;2023-04-15T02:36:11;8.30;;;5.45;;
25481;SDS011;13395;50.752;4.268;2023-04-15T02:38:37;7.40;;;5.85;;
25481;SDS011;13395;50.752;4.268;2023-04-15T02:41:05;9.15;;;6.32;;
25481;SDS011;13395;50.752;4.268;2023-04-15T02:43:30;7.75;;;6.85;;
25481;SDS011;13395;50.752;4.268;2023-04-15T02:45:56;8.13;;;5.93;;
25481;SDS011;13395;50.752;4.268;2023-04-15T02:48:22;8.65;;;6.57;;
25481;SDS011;13395;50.752;4.268;2023-04-15T02:50:48;10.80;;;6.70;;
25481;SDS011;13395;50.752;4.268;2023-04-15T02:53:13;9.35;;;7.00;;
25481;SDS011;13395;50.752;4.268;2023-04-15T02:55:39;8.02;;;6.88;;
25481;SDS011;13395;50.752;4.268;2023-04-15T02:58:05;7.95;;;6.28;;
25481;SDS011;13395;50.752;4.268;2023-04-15T03:00:31;10.93;;;6.43;;
25481;SDS011;13395;50.752;4.268;2023-04-15T03:02:57;12.20;;;5.90;;
25481;SDS011;13395;50.752;4.268;2023-04-15T03:05:26;8.23;;;6.10;;
25481;SDS011;13395;50.752;4.268;2023-04-15T03:07:52;8.75;;;6.53;;
25481;SDS011;13395;50.752;4.268;2023-04-15T03:10:18;11.38;;;7.63;;
25481;SDS011;13395;50.752;4.268;2023-04-15T03:12:44;9.88;;;6.60;;
25481;SDS011;13395;50.752;4.268;2023-04-15T03:15:10;8.85;;;5.88;;
25481;SDS011;13395;50.752;4.268;2023-04-15T03:17:36;12.10;;;6.55;;
25481;SDS011;13395;50.752;4.268;2023-04-15T03:20:02;8.27;;;5.53;;
25481;SDS011;13395;50.752;4.268;2023-04-15T03:22:29;9.40;;;6.35;;
25481;SDS011;13395;50.752;4.268;2023-04-15T03:24:55;9.20;;;6.20;;
25481;SDS011;13395;50.752;4.268;2023-04-15T03:27:21;9.60;;;6.10;;
25481;SDS011;13395;50.752;4.268;2023-04-15T03:29:47;8.68;;;5.88;;
25481;SDS011;13395;50.752;4.268;2023-04-15T03:32:13;6.50;;;5.60;;
25481;SDS011;13395;50.752;4.268;2023-04-15T03:34:39;7.10;;;6.35;;
25481;SDS011;13395;50.752;4.268;2023-04-15T03:37:06;9.50;;;6.20;;
25481;SDS011;13395;50.752;4.268;2023-04-15T03:39:31;9.40;;;5.93;;
25481;SDS011;13395;50.752;4.268;2023-04-15T03:41:57;11.15;;;5.88;;
25481;SDS011;13395;50.752;4.268;2023-04-15T03:44:23;7.95;;;6.28;;
25481;SDS011;13395;50.752;4.268;2023-04-15T03:46:52;11.25;;;7.43;;
25481;SDS011;13395;50.752;4.268;2023-04-15T03:49:18;18.08;;;8.65;;
25481;SDS011;13395;50.752;4.268;2023-04-15T03:51:44;17.75;;;8.82;;
25481;SDS011;13395;50.752;4.268;2023-04-15T03:54:10;17.98;;;9.45;;
25481;SDS011;13395;50.752;4.268;2023-04-15T03:56:36;19.13;;;9.65;;
25481;SDS011;13395;50.752;4.268;2023-04-15T03:59:02;16.85;;;9.25;;
25481;SDS011;13395;50.752;4.268;2023-04-15T04:01:28;19.17;;;9.52;;
25481;SDS011;13395;50.752;4.268;2023-04-15T04:03:53;18.40;;;9.00;;
25481;SDS011;13395;50.752;4.268;2023-04-15T04:06:19;17.08;;;8.73;;
25481;SDS011;13395;50.752;4.268;2023-04-15T04:08:45;18.17;;;9.48;;
25481;SDS011;13395;50.752;4.268;2023-04-15T04:11:11;18.38;;;10.35;;
25481;SDS011;13395;50.752;4.268;2023-04-15T04:13:37;19.10;;;10.27;;
25481;SDS011;13395;50.752;4.268;2023-04-15T04:16:02;21.55;;;11.30;;
25481;SDS011;13395;50.752;4.268;2023-04-15T04:18:29;23.88;;;12.38;;
25481;SDS011;13395;50.752;4.268;2023-04-15T04:20:56;21.25;;;11.80;;
25481;SDS011;13395;50.752;4.268;2023-04-15T04:23:21;24.45;;;12.20;;
25481;SDS011;13395;50.752;4.268;2023-04-15T04:25:47;21.83;;;11.68;;
25481;SDS011;13395;50.752;4.268;2023-04-15T04:28:12;21.05;;;12.88;;
25481;SDS011;13395;50.752;4.268;2023-04-15T04:30:38;27.77;;;14.13;;
25481;SDS011;13395;50.752;4.268;2023-04-15T04:33:05;24.45;;;13.80;;
25481;SDS011;13395;50.752;4.268;2023-04-15T04:35:31;20.58;;;12.52;;
25481;SDS011;13395;50.752;4.268;2023-04-15T04:37:58;21.98;;;13.25;;
25481;SDS011;13395;50.752;4.268;2023-04-15T04:40:25;23.15;;;13.73;;
25481;SDS011;13395;50.752;4.268;2023-04-15T04:42:51;22.30;;;12.80;;
25481;SDS011;13395;50.752;4.268;2023-04-15T04:45:17;26.85;;;13.50;;
25481;SDS011;13395;50.752;4.268;2023-04-15T04:47:43;25.33;;;13.27;;
25481;SDS011;13395;50.752;4.268;2023-04-15T04:50:08;25.70;;;13.10;;
25481;SDS011;13395;50.752;4.268;2023-04-15T04:52:35;19.92;;;12.10;;
25481;SDS011;13395;50.752;4.268;2023-04-15T04:55:00;22.27;;;12.70;;
25481;SDS011;13395;50.752;4.268;2023-04-15T04:57:26;27.42;;;12.73;;
25481;SDS011;13395;50.752;4.268;2023-04-15T04:59:52;24.25;;;14.57;;
25481;SDS011;13395;50.752;4.268;2023-04-15T05:02:17;23.17;;;13.07;;
25481;SDS011;13395;50.752;4.268;2023-04-15T05:04:43;22.00;;;12.65;;
25481;SDS011;13395;50.752;4.268;2023-04-15T05:07:08;23.25;;;12.98;;
25481;SDS011;13395;50.752;4.268;2023-04-15T05:09:34;25.50;;;14.50;;
25481;SDS011;13395;50.752;4.268;2023-04-15T05:12:01;22.05;;;13.35;;
25481;SDS011;13395;50.752;4.268;2023-04-15T05:14:27;16.60;;;12.43;;
25481;SDS011;13395;50.752;4.268;2023-04-15T05:16:53;21.55;;;12.40;;
25481;SDS011;13395;50.752;4.268;2023-04-15T05:19:18;24.60;;;14.90;;
25481;SDS011;13395;50.752;4.268;2023-04-15T05:21:44;23.88;;;12.98;;
25481;SDS011;13395;50.752;4.268;2023-04-15T05:24:10;19.85;;;13.32;;
25481;SDS011;13395;50.752;4.268;2023-04-15T05:26:35;22.30;;;13.05;;
25481;SDS011;13395;50.752;4.268;2023-04-15T05:29:01;18.88;;;12.48;;
25481;SDS011;13395;50.752;4.268;2023-04-15T05:31:27;18.52;;;12.13;;
25481;SDS011;13395;50.752;4.268;2023-04-15T05:33:52;21.75;;;12.20;;
25481;SDS011;13395;50.752;4.268;2023-04-15T05:36:18;20.90;;;12.88;;
25481;SDS011;13395;50.752;4.268;2023-04-15T05:38:43;22.77;;;13.57;;
25481;SDS011;13395;50.752;4.268;2023-04-15T05:41:10;21.08;;;12.60;;
25481;SDS011;13395;50.752;4.268;2023-04-15T05:43:36;19.85;;;12.63;;
25481;SDS011;13395;50.752;4.268;2023-04-15T05:46:01;19.90;;;12.68;;
25481;SDS011;13395;50.752;4.268;2023-04-15T05:48:27;20.90;;;12.85;;
25481;SDS011;13395;50.752;4.268;2023-04-15T05:50:52;22.35;;;12.77;;
25481;SDS011;13395;50.752;4.268;2023-04-15T05:53:18;20.13;;;13.35;;
25481;SDS011;13395;50.752;4.268;2023-04-15T05:55:44;20.08;;;13.40;;
25481;SDS011;13395;50.752;4.268;2023-04-15T05:58:10;24.23;;;13.13;;
25481;SDS011;13395;50.752;4.268;2023-04-15T06:00:36;24.77;;;12.68;;
25481;SDS011;13395;50.752;4.268;2023-04-15T06:03:02;19.67;;;12.82;;
25481;SDS011;13395;50.752;4.268;2023-04-15T06:05:28;20.77;;;13.38;;
25481;SDS011;13395;50.752;4.268;2023-04-15T06:07:53;20.77;;;12.63;;
25481;SDS011;13395;50.752;4.268;2023-04-15T06:10:19;26.05;;;13.82;;
25481;SDS011;13395;50.752;4.268;2023-04-15T06:12:45;20.50;;;12.52;;
25481;SDS011;13395;50.752;4.268;2023-04-15T06:15:10;22.40;;;12.77;;
25481;SDS011;13395;50.752;4.268;2023-04-15T06:17:36;20.27;;;12.77;;
25481;SDS011;13395;50.752;4.268;2023-04-15T06:20:02;16.35;;;11.75;;
25481;SDS011;13395;50.752;4.268;2023-04-15T06:22:28;17.15;;;11.70;;
25481;SDS011;13395;50.752;4.268;2023-04-15T06:24:53;19.25;;;12.23;;
25481;SDS011;13395;50.752;4.268;2023-04-15T06:27:19;20.02;;;11.15;;
25481;SDS011;13395;50.752;4.268;2023-04-15T06:29:45;16.45;;;10.25;;
25481;SDS011;13395;50.752;4.268;2023-04-15T06:32:11;18.33;;;11.18;;
25481;SDS011;13395;50.752;4.268;2023-04-15T06:34:37;17.13;;;10.93;;
25481;SDS011;13395;50.752;4.268;2023-04-15T06:37:03;20.23;;;11.40;;
25481;SDS011;13395;50.752;4.268;2023-04-15T06:39:28;17.25;;;9.73;;
25481;SDS011;13395;50.752;4.268;2023-04-15T06:41:54;18.15;;;10.20;;
25481;SDS011;13395;50.752;4.268;2023-04-15T06:44:20;15.57;;;10.18;;
25481;SDS011;13395;50.752;4.268;2023-04-15T06:46:46;15.40;;;8.75;;
25481;SDS011;13395;50.752;4.268;2023-04-15T06:49:11;11.18;;;8.15;;
25481;SDS011;13395;50.752;4.268;2023-04-15T06:51:37;15.80;;;8.85;;
25481;SDS011;13395;50.752;4.268;2023-04-15T06:54:03;12.73;;;8.07;;
25481;SDS011;13395;50.752;4.268;2023-04-15T06:56:32;10.63;;;6.82;;
25481;SDS011;13395;50.752;4.268;2023-04-15T06:58:58;13.93;;;6.82;;
25481;SDS011;13395;50.752;4.268;2023-04-15T07:01:24;12.30;;;6.38;;
25481;SDS011;13395;50.752;4.268;2023-04-15T07:03:50;7.35;;;6.03;;
25481;SDS011;13395;50.752;4.268;2023-04-15T07:06:16;11.48;;;6.47;;
25481;SDS011;13395;50.752;4.268;2023-04-15T07:08:42;12.82;;;7.38;;
25481;SDS011;13395;50.752;4.268;2023-04-15T07:11:07;12.25;;;7.20;;
25481;SDS011;13395;50.752;4.268;2023-04-15T07:13:33;9.88;;;7.22;;
25481;SDS011;13395;50.752;4.268;2023-04-15T07:15:59;12.38;;;7.40;;
25481;SDS011;13395;50.752;4.268;2023-04-15T07:18:24;9.77;;;6.53;;
25481;SDS011;13395;50.752;4.268;2023-04-15T07:20:50;16.48;;;6.97;;
25481;SDS011;13395;50.752;4.268;2023-04-15T07:23:16;9.95;;;7.07;;
25481;SDS011;13395;50.752;4.268;2023-04-15T07:25:42;12.68;;;6.53;;
25481;SDS011;13395;50.752;4.268;2023-04-15T07:28:07;9.82;;;6.15;;
25481;SDS011;13395;50.752;4.268;2023-04-15T07:30:33;14.90;;;7.78;;
25481;SDS011;13395;50.752;4.268;2023-04-15T07:33:00;12.32;;;5.75;;
25481;SDS011;13395;50.752;4.268;2023-04-15T07:35:26;11.13;;;6.47;;
25481;SDS011;13395;50.752;4.268;2023-04-15T07:37:52;10.20;;;5.47;;
25481;SDS011;13395;50.752;4.268;2023-04-15T07:40:17;10.88;;;5.97;;
25481;SDS011;13395;50.752;4.268;2023-04-15T07:42:43;8.70;;;5.55;;
25481;SDS011;13395;50.752;4.268;2023-04-15T07:45:09;9.48;;;4.93;;
25481;SDS011;13395;50.752;4.268;2023-04-15T07:47:35;7.47;;;4.80;;
25481;SDS011;13395;50.752;4.268;2023-04-15T07:50:01;7.82;;;6.00;;
25481;SDS011;13395;50.752;4.268;2023-04-15T07:52:27;6.57;;;4.60;;
25481;SDS011;13395;50.752;4.268;2023-04-15T07:54:52;11.98;;;5.45;;
25481;SDS011;13395;50.752;4.268;2023-04-15T07:57:18;9.15;;;4.22;;
25481;SDS011;13395;50.752;4.268;2023-04-15T07:59:44;10.27;;;5.15;;
25481;SDS011;13395;50.752;4.268;2023-04-15T08:02:10;9.32;;;4.70;;
25481;SDS011;13395;50.752;4.268;2023-04-15T08:04:35;7.97;;;4.97;;
25481;SDS011;13395;50.752;4.268;2023-04-15T08:07:02;6.93;;;4.68;;
25481;SDS011;13395;50.752;4.268;2023-04-15T08:09:28;10.15;;;5.65;;
25481;SDS011;13395;50.752;4.268;2023-04-15T08:11:54;10.57;;;5.82;;
25481;SDS011;13395;50.752;4.268;2023-04-15T08:14:21;8.23;;;5.63;;
25481;SDS011;13395;50.752;4.268;2023-04-15T08:16:46;9.73;;;6.25;;
25481;SDS011;13395;50.752;4.268;2023-04-15T08:19:12;9.35;;;6.28;;
25481;SDS011;13395;50.752;4.268;2023-04-15T08:21:37;8.13;;;6.65;;
25481;SDS011;13395;50.752;4.268;2023-04-15T08:24:04;11.77;;;6.38;;
25481;SDS011;13395;50.752;4.268;2023-04-15T08:26:30;9.85;;;6.07;;
25481;SDS011;13395;50.752;4.268;2023-04-15T08:28:56;11.85;;;6.68;;
25481;SDS011;13395;50.752;4.268;2023-04-15T08:31:22;10.45;;;6.78;;
25481;SDS011;13395;50.752;4.268;2023-04-15T08:33:48;11.75;;;8.05;;
25481;SDS011;13395;50.752;4.268;2023-04-15T08:36:16;10.35;;;7.60;;
25481;SDS011;13395;50.752;4.268;2023-04-15T08:38:43;12.40;;;7.90;;
25481;SDS011;13395;50.752;4.268;2023-04-15T08:41:16;14.57;;;7.57;;
25481;SDS011;13395;50.752;4.268;2023-04-15T08:43:48;12.18;;;7.82;;
25481;SDS011;13395;50.752;4.268;2023-04-15T08:46:25;14.32;;;7.32;;
25481;SDS011;13395;50.752;4.268;2023-04-15T08:48:50;13.05;;;7.72;;
25481;SDS011;13395;50.752;4.268;2023-04-15T08:51:20;15.00;;;8.65;;
25481;SDS011;13395;50.752;4.268;2023-04-15T08:53:46;10.45;;;7.57;;
25481;SDS011;13395;50.752;4.268;2023-04-15T08:56:13;8.15;;;6.90;;
25481;SDS011;13395;50.752;4.268;2023-04-15T08:58:40;14.82;;;7.97;;
25481;SDS011;13395;50.752;4.268;2023-04-15T09:01:10;14.95;;;8.30;;
25481;SDS011;13395;50.752;4.268;2023-04-15T09:03:37;16.50;;;8.82;;
25481;SDS011;13395;50.752;4.268;2023-04-15T09:06:06;14.98;;;8.45;;
25481;SDS011;13395;50.752;4.268;2023-04-15T09:08:32;11.35;;;8.35;;
25481;SDS011;13395;50.752;4.268;2023-04-15T09:11:01;9.77;;;8.77;;
25481;SDS011;13395;50.752;4.268;2023-04-15T09:13:27;13.73;;;9.20;;
25481;SDS011;13395;50.752;4.268;2023-04-15T09:15:54;10.93;;;9.43;;
25481;SDS011;13395;50.752;4.268;2023-04-15T09:18:27;14.00;;;9.27;;
25481;SDS011;13395;50.752;4.268;2023-04-15T09:21:11;13.63;;;8.60;;
25481;SDS011;13395;50.752;4.268;2023-04-15T09:23:38;12.93;;;8.50;;
25481;SDS011;13395;50.752;4.268;2023-04-15T09:26:06;10.18;;;7.90;;
25481;SDS011;13395;50.752;4.268;2023-04-15T09:28:32;12.82;;;8.85;;
25481;SDS011;13395;50.752;4.268;2023-04-15T09:31:04;14.45;;;9.43;;
25481;SDS011;13395;50.752;4.268;2023-04-15T09:33:30;14.40;;;9.05;;
25481;SDS011;13395;50.752;4.268;2023-04-15T09:35:57;11.55;;;8.23;;
25481;SDS011;13395;50.752;4.268;2023-04-15T09:38:27;13.63;;;8.65;;
25481;SDS011;13395;50.752;4.268;2023-04-15T09:40:53;12.25;;;8.27;;
25481;SDS011;13395;50.752;4.268;2023-04-15T09:43:19;13.10;;;8.45;;
25481;SDS011;13395;50.752;4.268;2023-04-15T09:45:46;11.98;;;8.68;;
25481;SDS011;13395;50.752;4.268;2023-04-15T09:48:17;9.55;;;8.00;;
25481;SDS011;13395;50.752;4.268;2023-04-15T09:50:44;12.52;;;8.07;;
25481;SDS011;13395;50.752;4.268;2023-04-15T09:53:14;10.40;;;7.15;;
25481;SDS011;13395;50.752;4.268;2023-04-15T09:55:50;11.45;;;7.53;;
25481;SDS011;13395;50.752;4.268;2023-04-15T09:58:19;8.30;;;6.70;;
25481;SDS011;13395;50.752;4.268;2023-04-15T10:00:48;11.82;;;6.65;;
25481;SDS011;13395;50.752;4.268;2023-04-15T10:05:46;5.90;;;3.80;;
25481;SDS011;13395;50.752;4.268;2023-04-15T10:08:14;7.55;;;4.00;;
25481;SDS011;13395;50.752;4.268;2023-04-15T10:10:41;6.20;;;4.53;;
25481;SDS011;13395;50.752;4.268;2023-04-15T10:13:08;7.82;;;5.68;;
25481;SDS011;13395;50.752;4.268;2023-04-15T10:15:35;9.00;;;5.25;;
25481;SDS011;13395;50.752;4.268;2023-04-15T10:18:01;7.63;;;5.15;;
25481;SDS011;13395;50.752;4.268;2023-04-15T10:20:29;5.38;;;4.55;;
25481;SDS011;13395;50.752;4.268;2023-04-15T10:22:55;8.75;;;5.38;;
25481;SDS011;13395;50.752;4.268;2023-04-15T10:25:32;7.18;;;5.35;;
25481;SDS011;13395;50.752;4.268;2023-04-15T10:27:58;10.27;;;4.28;;
25481;SDS011;13395;50.752;4.268;2023-04-15T10:30:24;4.78;;;3.65;;
25481;SDS011;13395;50.752;4.268;2023-04-15T10:32:50;6.75;;;4.50;;
25481;SDS011;13395;50.752;4.268;2023-04-15T10:35:17;7.18;;;3.92;;
25481;SDS011;13395;50.752;4.268;2023-04-15T10:37:45;4.82;;;3.70;;
25481;SDS011;13395;50.752;4.268;2023-04-15T10:42:51;7.55;;;5.03;;
25481;SDS011;13395;50.752;4.268;2023-04-15T10:45:18;8.52;;;5.05;;
25481;SDS011;13395;50.752;4.268;2023-04-15T10:47:44;7.10;;;5.32;;
25481;SDS011;13395;50.752;4.268;2023-04-15T10:50:09;7.22;;;5.18;;
25481;SDS011;13395;50.752;4.268;2023-04-15T10:52:36;8.13;;;4.45;;
25481;SDS011;13395;50.752;4.268;2023-04-15T10:57:36;7.97;;;5.07;;
25481;SDS011;13395;50.752;4.268;2023-04-15T11:02:43;6.90;;;4.72;;
25481;SDS011;13395;50.752;4.268;2023-04-15T11:05:12;4.97;;;4.30;;
25481;SDS011;13395;50.752;4.268;2023-04-15T11:12:56;5.07;;;4.20;;
25481;SDS011;13395;50.752;4.268;2023-04-15T11:17:49;7.72;;;3.13;;
25481;SDS011;13395;50.752;4.268;2023-04-15T11:20:15;5.18;;;3.08;;
25481;SDS011;13395;50.752;4.268;2023-04-15T11:22:51;3.83;;;2.58;;
25481;SDS011;13395;50.752;4.268;2023-04-15T11:25:25;4.38;;;2.80;;
25481;SDS011;13395;50.752;4.268;2023-04-15T11:27:52;4.10;;;2.80;;
25481;SDS011;13395;50.752;4.268;2023-04-15T11:30:22;3.97;;;2.80;;
25481;SDS011;13395;50.752;4.268;2023-04-15T11:32:53;3.50;;;2.17;;
25481;SDS011;13395;50.752;4.268;2023-04-15T11:35:22;4.50;;;2.45;;
25481;SDS011;13395;50.752;4.268;2023-04-15T11:37:48;4.15;;;2.20;;
25481;SDS011;13395;50.752;4.268;2023-04-15T11:40:15;5.38;;;2.95;;
25481;SDS011;13395;50.752;4.268;2023-04-15T11:42:45;3.05;;;2.03;;
25481;SDS011;13395;50.752;4.268;2023-04-15T11:45:11;3.30;;;2.15;;
25481;SDS011;13395;50.752;4.268;2023-04-15T11:47:39;4.70;;;2.20;;
25481;SDS011;13395;50.752;4.268;2023-04-15T11:50:17;3.90;;;2.40;;
25481;SDS011;13395;50.752;4.268;2023-04-15T11:52:53;4.82;;;3.15;;
25481;SDS011;13395;50.752;4.268;2023-04-15T11:55:19;5.82;;;2.88;;
25481;SDS011;13395;50.752;4.268;2023-04-15T11:57:45;4.07;;;2.97;;
25481;SDS011;13395;50.752;4.268;2023-04-15T12:00:11;6.35;;;2.80;;
25481;SDS011;13395;50.752;4.268;2023-04-15T12:02:37;3.60;;;2.70;;
25481;SDS011;13395;50.752;4.268;2023-04-15T12:05:06;4.35;;;2.95;;
25481;SDS011;13395;50.752;4.268;2023-04-15T12:07:32;3.97;;;2.65;;
25481;SDS011;13395;50.752;4.268;2023-04-15T12:09:58;5.72;;;2.00;;
25481;SDS011;13395;50.752;4.268;2023-04-15T12:12:27;3.45;;;1.60;;
25481;SDS011;13395;50.752;4.268;2023-04-15T12:14:53;3.55;;;1.88;;
25481;SDS011;13395;50.752;4.268;2023-04-15T12:17:21;2.60;;;2.20;;
25481;SDS011;13395;50.752;4.268;2023-04-15T12:19:48;5.40;;;2.28;;
25481;SDS011;13395;50.752;4.268;2023-04-15T12:22:20;2.22;;;2.03;;
25481;SDS011;13395;50.752;4.268;2023-04-15T12:24:46;2.95;;;1.60;;
25481;SDS011;13395;50.752;4.268;2023-04-15T12:27:14;2.20;;;1.33;;
25481;SDS011;13395;50.752;4.268;2023-04-15T12:29:41;3.25;;;1.63;;
25481;SDS011;13395;50.752;4.268;2023-04-15T12:34:38;3.42;;;2.17;;
25481;SDS011;13395;50.752;4.268;2023-04-15T12:37:09;4.57;;;2.63;;
25481;SDS011;13395;50.752;4.268;2023-04-15T12:39:39;3.83;;;2.88;;
25481;SDS011;13395;50.752;4.268;2023-04-15T12:42:06;5.63;;;2.45;;
25481;SDS011;13395;50.752;4.268;2023-04-15T12:44:33;3.45;;;2.03;;
25481;SDS011;13395;50.752;4.268;2023-04-15T12:46:59;6.63;;;2.45;;
25481;SDS011;13395;50.752;4.268;2023-04-15T12:49:25;2.03;;;1.65;;
25481;SDS011;13395;50.752;4.268;2023-04-15T12:51:51;2.85;;;2.00;;
25481;SDS011;13395;50.752;4.268;2023-04-15T12:54:19;3.72;;;2.17;;
25481;SDS011;13395;50.752;4.268;2023-04-15T12:56:45;5.63;;;1.63;;
25481;SDS011;13395;50.752;4.268;2023-04-15T12:59:12;4.22;;;1.80;;
25481;SDS011;13395;50.752;4.268;2023-04-15T13:01:38;2.47;;;1.70;;
25481;SDS011;13395;50.752;4.268;2023-04-15T13:04:04;7.80;;;2.53;;
25481;SDS011;13395;50.752;4.268;2023-04-15T13:06:30;3.15;;;2.22;;
25481;SDS011;13395;50.752;4.268;2023-04-15T13:08:57;2.65;;;1.75;;
25481;SDS011;13395;50.752;4.268;2023-04-15T13:11:25;4.18;;;2.15;;
25481;SDS011;13395;50.752;4.268;2023-04-15T13:13:53;3.80;;;1.98;;
25481;SDS011;13395;50.752;4.268;2023-04-15T13:16:18;3.45;;;2.00;;
25481;SDS011;13395;50.752;4.268;2023-04-15T13:18:45;2.60;;;2.08;;
25481;SDS011;13395;50.752;4.268;2023-04-15T13:21:12;5.72;;;2.05;;
25481;SDS011;13395;50.752;4.268;2023-04-15T13:23:37;2.78;;;1.90;;
25481;SDS011;13395;50.752;4.268;2023-04-15T13:26:03;2.97;;;1.80;;
25481;SDS011;13395;50.752;4.268;2023-04-15T13:28:29;2.85;;;2.00;;
25481;SDS011;13395;50.752;4.268;2023-04-15T13:30:55;3.97;;;1.85;;
25481;SDS011;13395;50.752;4.268;2023-04-15T13:33:20;2.35;;;1.63;;
25481;SDS011;13395;50.752;4.268;2023-04-15T13:35:46;3.30;;;1.85;;
25481;SDS011;13395;50.752;4.268;2023-04-15T13:38:11;4.53;;;2.03;;
25481;SDS011;13395;50.752;4.268;2023-04-15T13:40:37;4.13;;;2.20;;
25481;SDS011;13395;50.752;4.268;2023-04-15T13:43:03;3.55;;;2.25;;
25481;SDS011;13395;50.752;4.268;2023-04-15T13:45:28;4.70;;;2.28;;
25481;SDS011;13395;50.752;4.268;2023-04-15T13:47:54;4.75;;;2.85;;
25481;SDS011;13395;50.752;4.268;2023-04-15T13:50:21;8.23;;;2.20;;
25481;SDS011;13395;50.752;4.268;2023-04-15T13:52:47;5.82;;;1.77;;
25481;SDS011;13395;50.752;4.268;2023-04-15T13:55:12;4.70;;;2.30;;
25481;SDS011;13395;50.752;4.268;2023-04-15T13:57:38;5.25;;;2.30;;
25481;SDS011;13395;50.752;4.268;2023-04-15T14:00:04;2.85;;;1.80;;
25481;SDS011;13395;50.752;4.268;2023-04-15T14:02:30;3.33;;;1.83;;
25481;SDS011;13395;50.752;4.268;2023-04-15T14:04:56;3.15;;;1.83;;
25481;SDS011;13395;50.752;4.268;2023-04-15T14:07:22;2.75;;;1.52;;
25481;SDS011;13395;50.752;4.268;2023-04-15T14:09:48;5.22;;;2.25;;
25481;SDS011;13395;50.752;4.268;2023-04-15T14:12:13;4.78;;;1.80;;
25481;SDS011;13395;50.752;4.268;2023-04-15T14:14:39;2.72;;;1.58;;
25481;SDS011;13395;50.752;4.268;2023-04-15T14:17:05;3.38;;;1.70;;
25481;SDS011;13395;50.752;4.268;2023-04-15T14:19:31;5.28;;;2.42;;
25481;SDS011;13395;50.752;4.268;2023-04-15T14:21:57;7.85;;;2.25;;
25481;SDS011;13395;50.752;4.268;2023-04-15T14:24:23;4.32;;;2.90;;
25481;SDS011;13395;50.752;4.268;2023-04-15T14:26:48;6.07;;;2.78;;
25481;SDS011;13395;50.752;4.268;2023-04-15T14:29:14;5.60;;;2.80;;
25481;SDS011;13395;50.752;4.268;2023-04-15T14:31:40;5.63;;;2.53;;
25481;SDS011;13395;50.752;4.268;2023-04-15T14:34:08;4.85;;;2.50;;
25481;SDS011;13395;50.752;4.268;2023-04-15T14:36:34;4.22;;;2.28;;
25481;SDS011;13395;50.752;4.268;2023-04-15T14:38:59;10.02;;;2.78;;
25481;SDS011;13395;50.752;4.268;2023-04-15T14:41:25;9.27;;;2.47;;
25481;SDS011;13395;50.752;4.268;2023-04-15T14:43:51;4.93;;;2.40;;
25481;SDS011;13395;50.752;4.268;2023-04-15T14:46:16;4.60;;;2.25;;
25481;SDS011;13395;50.752;4.268;2023-04-15T14:48:42;4.13;;;1.73;;
25481;SDS011;13395;50.752;4.268;2023-04-15T14:51:07;5.78;;;1.92;;
25481;SDS011;13395;50.752;4.268;2023-04-15T14:53:33;6.45;;;1.50;;
25481;SDS011;13395;50.752;4.268;2023-04-15T14:55:59;3.28;;;1.52;;